createdAt,value
2018-02-24T00:00:14.708Z,24.20
2018-02-24T00:02:42.287Z,24.20
2018-02-24T00:05:09.856Z,24.30
2018-02-24T00:07:38.214Z,24.00
2018-02-24T00:10:05.975Z,24.20
2018-02-24T00:12:33.668Z,24.10
2018-02-24T00:15:02.026Z,23.70
2018-02-24T00:17:29.653Z,23.60
2018-02-24T00:19:57.350Z,24.10
2018-02-24T00:22:24.926Z,23.70
2018-02-24T00:24:53.288Z,23.70
2018-02-24T00:27:20.923Z,23.70
2018-02-24T00:29:48.464Z,23.60
2018-02-24T00:32:16.266Z,23.70
2018-02-24T00:34:43.844Z,23.80
2018-02-24T00:37:12.160Z,24.00
2018-02-24T00:39:39.890Z,24.10
2018-02-24T00:42:08.225Z,23.80
2018-02-24T00:44:35.776Z,23.90
2018-02-24T00:47:03.374Z,24.00
2018-02-24T00:49:31.732Z,24.00
2018-02-24T00:51:59.352Z,23.80
2018-02-24T00:54:26.914Z,23.80
2018-02-24T00:56:54.500Z,24.10
2018-02-24T00:59:22.064Z,24.30
2018-02-24T01:01:49.612Z,23.90
2018-02-24T01:04:17.192Z,24.60
2018-02-24T01:06:44.744Z,24.00
2018-02-24T01:09:12.339Z,24.10
2018-02-24T01:11:40.637Z,24.40
2018-02-24T01:14:08.257Z,24.40
2018-02-24T01:16:35.854Z,24.10
2018-02-24T01:19:03.400Z,24.10
2018-02-24T01:21:31.729Z,23.90
2018-02-24T01:23:59.283Z,24.00
2018-02-24T01:26:26.863Z,24.40
2018-02-24T01:28:54.437Z,24.10
2018-02-24T01:31:22.009Z,24.30
2018-02-24T01:33:50.331Z,24.50
2018-02-24T01:36:18.004Z,24.50
2018-02-24T01:38:45.594Z,24.50
2018-02-24T01:41:13.171Z,24.20
2018-02-24T01:43:41.468Z,24.40
2018-02-24T01:46:09.795Z,24.80
2018-02-24T01:48:38.103Z,24.30
2018-02-24T01:51:06.606Z,24.20
2018-02-24T01:53:34.163Z,24.20
2018-02-24T01:56:01.743Z,24.40
2018-02-24T01:58:29.298Z,24.50
2018-02-24T02:00:56.845Z,24.40
2018-02-24T02:03:24.439Z,24.50
2018-02-24T02:05:51.981Z,24.60
2018-02-24T02:08:19.522Z,24.60
2018-02-24T02:10:47.088Z,24.60
2018-02-24T02:13:14.623Z,24.20
2018-02-24T02:15:42.982Z,24.40
2018-02-24T02:18:10.620Z,24.50
2018-02-24T02:20:39.673Z,24.40
2018-02-24T02:23:07.316Z,24.40
2018-02-24T02:25:35.729Z,24.70
2018-02-24T02:28:03.350Z,24.80
2018-02-24T02:30:31.685Z,24.60
2018-02-24T02:32:59.269Z,24.60
2018-02-24T02:35:26.837Z,24.90
2018-02-24T02:37:54.441Z,24.90
2018-02-24T02:40:22.111Z,24.80
2018-02-24T02:42:49.789Z,24.60
2018-02-24T02:45:17.405Z,24.70
2018-02-24T02:47:45.735Z,24.90
2018-02-24T02:50:13.309Z,24.90
2018-02-24T02:52:41.615Z,24.90
2018-02-24T02:55:09.973Z,24.70
2018-02-24T02:57:37.519Z,24.70
2018-02-24T03:00:05.947Z,24.70
2018-02-24T03:02:33.622Z,24.70
2018-02-24T03:05:01.207Z,24.80
2018-02-24T03:07:28.773Z,24.00
2018-02-24T03:09:56.341Z,24.70
2018-02-24T03:12:25.430Z,25.30
2018-02-24T03:14:52.997Z,25.30
2018-02-24T03:17:20.559Z,24.80
2018-02-24T03:19:48.243Z,24.90
2018-02-24T03:22:16.644Z,24.80
2018-02-24T03:24:44.427Z,24.90
2018-02-24T03:27:11.991Z,24.50
2018-02-24T03:29:39.552Z,25.10
2018-02-24T03:32:07.121Z,24.70
2018-02-24T03:34:34.685Z,24.70
2018-02-24T03:37:02.265Z,24.80
2018-02-24T03:39:29.865Z,24.40
2018-02-24T03:41:57.459Z,24.70
2018-02-24T03:44:25.189Z,24.70
2018-02-24T03:46:52.791Z,24.30
2018-02-24T03:49:20.343Z,24.40
2018-02-24T03:51:48.028Z,24.40
2018-02-24T03:54:15.575Z,24.30
2018-02-24T03:56:43.147Z,24.70
2018-02-24T03:59:10.705Z,24.20
2018-02-24T04:01:38.240Z,24.40
2018-02-24T04:04:05.812Z,24.50
2018-02-24T04:06:33.353Z,24.90
2018-02-24T04:09:01.207Z,24.40
2018-02-24T04:11:28.765Z,24.40
2018-02-24T04:13:56.374Z,24.40
2018-02-24T04:16:23.969Z,24.80
2018-02-24T04:18:53.074Z,24.50
2018-02-24T04:21:20.679Z,24.60
2018-02-24T04:23:48.445Z,24.90
2018-02-24T04:26:16.062Z,24.20
2018-02-24T04:28:43.604Z,24.90
2018-02-24T04:31:12.063Z,25.10
2018-02-24T04:33:39.629Z,25.10
2018-02-24T04:36:08.173Z,24.70
2018-02-24T04:38:35.849Z,24.70
2018-02-24T04:41:03.383Z,24.70
2018-02-24T04:43:31.142Z,24.90
2018-02-24T04:45:58.731Z,24.90
2018-02-24T04:48:26.272Z,24.60
2018-02-24T04:50:53.858Z,25.00
2018-02-24T04:53:21.420Z,24.40
2018-02-24T04:55:48.967Z,25.10
2018-02-24T04:58:17.406Z,25.00
2018-02-24T05:00:44.966Z,24.60
2018-02-24T05:03:12.578Z,24.70
2018-02-24T05:05:40.169Z,24.50
2018-02-24T05:08:07.744Z,24.50
2018-02-24T05:10:35.359Z,24.60
2018-02-24T05:13:02.920Z,24.60
2018-02-24T05:15:30.516Z,24.90
2018-02-24T05:17:58.046Z,24.60
2018-02-24T05:20:26.406Z,25.20
2018-02-24T05:22:53.956Z,24.60
2018-02-24T05:25:21.572Z,24.30
2018-02-24T05:27:49.132Z,24.70
2018-02-24T05:30:16.701Z,24.60
2018-02-24T05:32:44.370Z,24.70
2018-02-24T05:35:12.014Z,24.70
2018-02-24T05:37:39.707Z,24.60
2018-02-24T05:40:07.356Z,24.30
2018-02-24T05:42:35.063Z,24.60
2018-02-24T05:45:02.614Z,24.40
2018-02-24T05:47:30.164Z,24.70
2018-02-24T05:49:57.822Z,24.40
2018-02-24T05:52:25.367Z,24.10
2018-02-24T05:54:52.946Z,24.10
2018-02-24T05:57:20.505Z,24.30
2018-02-24T05:59:48.085Z,24.50
2018-02-24T06:02:15.642Z,23.80
2018-02-24T06:04:43.326Z,24.30
2018-02-24T06:07:11.630Z,24.30
2018-02-24T06:09:39.208Z,24.40
2018-02-24T06:12:07.506Z,24.10
2018-02-24T06:14:35.231Z,24.70
2018-02-24T06:17:02.794Z,24.10
2018-02-24T06:19:30.341Z,24.20
2018-02-24T06:21:57.910Z,24.20
2018-02-24T06:24:25.446Z,24.30
2018-02-24T06:26:53.810Z,24.10
2018-02-24T06:29:22.173Z,24.20
2018-02-24T06:31:49.714Z,24.30
2018-02-24T06:34:17.428Z,23.70
2018-02-24T06:36:44.978Z,23.80
2018-02-24T06:39:13.309Z,23.70
2018-02-24T06:41:40.838Z,23.80
2018-02-24T06:44:08.443Z,24.00
2018-02-24T06:46:36.003Z,23.70
2018-02-24T06:49:03.548Z,23.20
2018-02-24T06:51:31.176Z,23.20
2018-02-24T06:53:58.778Z,23.40
2018-02-24T06:56:26.337Z,23.20
2018-02-24T06:58:53.932Z,23.20
2018-02-24T07:01:22.269Z,23.50
2018-02-24T07:03:49.843Z,23.60
2018-02-24T07:06:17.420Z,23.30
2018-02-24T07:08:45.792Z,24.00
2018-02-24T07:11:14.307Z,23.20
2018-02-24T07:13:41.912Z,23.20
2018-02-24T07:16:09.450Z,23.20
2018-02-24T07:18:37.160Z,23.80
2018-02-24T07:21:05.515Z,24.00
2018-02-24T07:23:33.835Z,23.60
2018-02-24T07:26:02.202Z,23.80
2018-02-24T07:28:29.741Z,23.80
2018-02-24T07:30:57.340Z,23.20
2018-02-24T07:33:24.916Z,23.30
2018-02-24T07:35:52.537Z,23.20
2018-02-24T07:38:20.856Z,25.50
2018-02-24T07:40:48.423Z,25.60
2018-02-24T07:43:16.000Z,25.10
2018-02-24T07:45:43.592Z,26.40
2018-02-24T07:48:12.095Z,28.20
2018-02-24T07:50:39.692Z,28.30
2018-02-24T07:53:07.322Z,30.10
2018-02-24T07:55:35.040Z,33.50
2018-02-24T07:58:02.597Z,30.60
2018-02-24T08:00:30.189Z,29.30
2018-02-24T08:02:57.802Z,29.40
2018-02-24T08:05:25.377Z,29.20
2018-02-24T08:07:52.967Z,29.40
2018-02-24T08:10:20.623Z,28.40
2018-02-24T08:12:48.943Z,30.40
2018-02-24T08:15:16.700Z,30.40
2018-02-24T08:17:44.300Z,28.30
2018-02-24T08:20:11.972Z,29.10
2018-02-24T08:22:40.397Z,28.60
2018-02-24T08:25:08.096Z,28.40
2018-02-24T08:27:35.656Z,29.40
2018-02-24T08:30:03.238Z,28.90
2018-02-24T08:32:30.866Z,28.60
2018-02-24T08:34:58.457Z,29.20
2018-02-24T08:37:26.774Z,29.60
2018-02-24T08:39:54.302Z,29.60
2018-02-24T08:42:22.673Z,29.10
2018-02-24T08:44:51.003Z,29.30
2018-02-24T08:47:18.591Z,29.30
2018-02-24T08:49:46.154Z,29.20
2018-02-24T08:52:13.782Z,29.30
2018-02-24T08:54:41.343Z,29.00
2018-02-24T08:57:08.898Z,28.60
2018-02-24T08:59:36.543Z,28.90
2018-02-24T09:02:04.125Z,28.60
2018-02-24T09:04:31.745Z,28.10
2018-02-24T09:07:00.093Z,28.40
2018-02-24T09:09:27.709Z,28.50
2018-02-24T09:11:55.265Z,28.10
2018-02-24T09:14:22.829Z,28.10
2018-02-24T09:16:50.405Z,28.10
2018-02-24T09:19:18.051Z,28.10
2018-02-24T09:21:45.711Z,28.10
2018-02-24T09:24:13.247Z,28.20
2018-02-24T09:26:41.695Z,28.20
2018-02-24T09:29:09.365Z,28.20
2018-02-24T09:31:36.947Z,28.20
2018-02-24T09:34:04.551Z,28.10
2018-02-24T09:36:32.149Z,28.10
2018-02-24T09:38:59.712Z,28.10
2018-02-24T09:41:27.316Z,28.10
2018-02-24T09:43:54.917Z,28.10
2018-02-24T09:46:24.010Z,28.20
2018-02-24T09:48:51.723Z,28.10
2018-02-24T09:51:19.293Z,28.10
2018-02-24T09:53:46.894Z,27.30
2018-02-24T09:56:14.573Z,27.20
2018-02-24T09:58:42.926Z,26.90
2018-02-24T10:01:10.514Z,27.00
2018-02-24T10:03:38.856Z,26.10
2018-02-24T10:06:06.392Z,26.10
2018-02-24T10:08:34.000Z,26.30
2018-02-24T10:11:01.718Z,25.60
2018-02-24T10:13:29.288Z,25.40
2018-02-24T10:15:56.934Z,24.90
2018-02-24T10:18:24.515Z,24.80
2018-02-24T10:20:52.094Z,24.80
2018-02-24T10:23:19.642Z,24.50
2018-02-24T10:25:47.207Z,24.60
2018-02-24T10:28:14.791Z,24.40
2018-02-24T10:30:42.398Z,24.40
2018-02-24T10:33:10.144Z,24.10
2018-02-24T10:35:39.294Z,23.80
2018-02-24T10:38:06.871Z,23.80
2018-02-24T10:40:34.490Z,23.70
2018-02-24T10:43:02.134Z,24.80
2018-02-24T10:45:29.797Z,24.70
2018-02-24T10:47:57.340Z,24.90
2018-02-24T10:50:24.917Z,23.60
2018-02-24T10:52:52.537Z,25.50
2018-02-24T10:55:20.942Z,27.00
2018-02-24T10:57:48.542Z,27.00
2018-02-24T11:00:16.122Z,27.80
2018-02-24T11:02:43.725Z,28.40
2018-02-24T11:05:11.288Z,27.60
2018-02-24T11:07:38.888Z,26.30
2018-02-24T11:10:06.475Z,26.00
2018-02-24T11:12:34.171Z,25.90
2018-02-24T11:15:01.730Z,26.30
2018-02-24T11:17:29.305Z,26.50
2018-02-24T11:19:56.894Z,26.80
2018-02-24T11:22:24.530Z,27.00
2018-02-24T11:24:52.128Z,26.70
2018-02-24T11:27:19.696Z,26.40
2018-02-24T11:29:47.296Z,26.20
2018-02-24T11:32:14.888Z,26.20
2018-02-24T11:34:42.463Z,25.70
2018-02-24T11:37:10.044Z,25.60
2018-02-24T11:39:40.366Z,25.70
2018-02-24T11:42:08.797Z,25.90
2018-02-24T11:44:36.405Z,25.90
2018-02-24T11:47:04.058Z,25.60
2018-02-24T11:49:31.640Z,25.50
2018-02-24T11:51:59.984Z,25.00
2018-02-24T11:54:27.614Z,25.00
2018-02-24T11:56:55.230Z,24.90
2018-02-24T11:59:23.562Z,25.70
2018-02-24T12:01:51.096Z,25.60
2018-02-24T12:04:18.684Z,26.10
2018-02-24T12:06:46.237Z,27.20
2018-02-24T12:09:13.820Z,27.40
2018-02-24T12:11:41.438Z,26.70
2018-02-24T12:14:08.980Z,26.30
2018-02-24T12:16:36.565Z,25.90
2018-02-24T12:19:04.206Z,25.70
2018-02-24T12:21:31.774Z,25.60
2018-02-24T12:23:59.340Z,25.60
2018-02-24T12:26:26.952Z,25.50
2018-02-24T12:28:54.496Z,25.30
2018-02-24T12:31:22.090Z,25.20
2018-02-24T12:33:50.407Z,25.50
2018-02-24T12:36:17.988Z,25.50
2018-02-24T12:38:45.544Z,25.20
2018-02-24T12:41:13.168Z,24.80
2018-02-24T12:43:40.829Z,25.00
2018-02-24T12:46:08.488Z,24.90
2018-02-24T12:48:36.142Z,25.10
2018-02-24T12:51:03.814Z,25.10
2018-02-24T12:53:31.418Z,25.00
2018-02-24T12:55:58.999Z,25.00
2018-02-24T12:58:26.554Z,25.10
2018-02-24T13:00:54.177Z,25.00
2018-02-24T13:03:21.915Z,24.90
2018-02-24T13:05:49.511Z,25.00
2018-02-24T13:10:50.371Z,24.60
2018-02-24T13:13:17.939Z,24.70
2018-02-24T13:15:45.584Z,24.90
2018-02-24T13:18:13.125Z,24.90
2018-02-24T13:20:40.676Z,25.00
2018-02-24T13:23:08.264Z,24.90
2018-02-24T13:25:35.873Z,25.50
2018-02-24T13:28:04.218Z,25.20
2018-02-24T13:30:32.011Z,25.20
2018-02-24T13:33:00.369Z,25.20
2018-02-24T13:35:28.035Z,25.20
2018-02-24T13:37:55.710Z,25.60
2018-02-24T13:40:24.025Z,25.00
2018-02-24T13:42:51.560Z,25.00
2018-02-24T13:45:20.023Z,24.90
2018-02-24T13:47:48.347Z,24.90
2018-02-24T13:50:16.054Z,25.00
2018-02-24T13:52:44.247Z,24.90
2018-02-24T13:55:12.674Z,24.70
2018-02-24T13:57:41.001Z,24.70
2018-02-24T14:00:09.453Z,24.30
2018-02-24T14:02:37.007Z,24.40
2018-02-24T14:05:04.623Z,24.10
2018-02-24T14:07:32.172Z,24.10
2018-02-24T14:10:00.480Z,23.70
2018-02-24T14:12:28.129Z,23.70
2018-02-24T14:14:55.713Z,23.60
2018-02-24T14:17:23.321Z,23.70
2018-02-24T14:19:51.648Z,23.70
2018-02-24T14:22:19.406Z,23.70
2018-02-24T14:24:46.963Z,23.70
2018-02-24T14:27:14.530Z,23.70
2018-02-24T14:29:42.145Z,23.60
2018-02-24T14:32:09.765Z,23.70
2018-02-24T14:34:37.489Z,23.70
2018-02-24T14:37:05.054Z,23.60
2018-02-24T14:39:32.609Z,23.60
2018-02-24T14:42:00.227Z,23.60
2018-02-24T14:44:27.781Z,23.60
2018-02-24T14:46:55.468Z,23.60
2018-02-24T14:49:23.809Z,23.70
2018-02-24T14:51:51.363Z,23.60
2018-02-24T14:54:18.938Z,23.60
2018-02-24T14:56:46.525Z,23.60
2018-02-24T14:59:15.020Z,23.70
2018-02-24T15:01:42.637Z,23.60
2018-02-24T15:04:10.271Z,23.60
2018-02-24T15:06:37.837Z,23.60
2018-02-24T15:09:05.416Z,23.60
2018-02-24T15:11:32.973Z,23.60
2018-02-24T15:14:00.619Z,23.60
2018-02-24T15:16:28.464Z,23.60
2018-02-24T15:18:56.157Z,23.60
2018-02-24T15:21:23.743Z,24.20
2018-02-24T15:23:51.353Z,23.60
2018-02-24T15:26:18.915Z,23.60
2018-02-24T15:28:46.514Z,23.60
2018-02-24T15:31:14.127Z,23.60
2018-02-24T15:33:41.792Z,23.60
2018-02-24T15:36:09.379Z,23.20
2018-02-24T15:38:36.988Z,22.30
2018-02-24T15:41:04.627Z,23.60
2018-02-24T15:43:32.343Z,23.60
2018-02-24T15:46:00.084Z,24.20
2018-02-24T15:48:27.654Z,23.60
2018-02-24T15:50:55.290Z,23.60
2018-02-24T15:53:23.796Z,23.50
2018-02-24T15:55:52.345Z,23.50
2018-02-24T15:58:20.696Z,23.50
2018-02-24T16:00:48.334Z,23.50
2018-02-24T16:03:15.891Z,23.50
2018-02-24T16:05:43.466Z,23.50
2018-02-24T16:08:11.032Z,23.50
2018-02-24T16:10:38.772Z,23.50
2018-02-24T16:13:06.467Z,23.40
2018-02-24T16:15:34.142Z,23.40
2018-02-24T16:18:01.730Z,23.40
2018-02-24T16:20:29.316Z,23.40
2018-02-24T16:22:56.918Z,24.30
2018-02-24T16:25:25.268Z,26.90
2018-02-24T16:27:52.836Z,27.00
2018-02-24T16:30:20.486Z,28.30
2018-02-24T16:32:48.118Z,28.60
2018-02-24T16:35:16.405Z,28.10
2018-02-24T16:37:43.968Z,28.40
2018-02-24T16:40:11.611Z,28.40
2018-02-24T16:42:40.236Z,28.40
2018-02-24T16:45:07.836Z,28.40
2018-02-24T16:47:36.362Z,28.50
2018-02-24T16:50:03.980Z,28.40
2018-02-24T16:52:32.427Z,28.50
2018-02-24T16:54:59.975Z,28.50
2018-02-24T16:57:27.579Z,31.10
2018-02-24T16:59:55.942Z,35.50
2018-02-24T17:02:23.704Z,35.50
2018-02-24T17:04:51.348Z,51.40
2018-02-24T17:07:18.981Z,46.20
2018-02-24T17:09:46.734Z,39.30
2018-02-24T17:12:14.353Z,39.00
2018-02-24T17:14:41.966Z,36.10
2018-02-24T17:17:09.632Z,31.30
2018-02-24T17:19:37.193Z,29.30
2018-02-24T17:22:04.752Z,29.30
2018-02-24T17:24:32.344Z,28.20
2018-02-24T17:26:59.906Z,28.10
2018-02-24T17:29:27.667Z,29.00
2018-02-24T17:31:55.290Z,28.00
2018-02-24T17:34:22.878Z,27.50
2018-02-24T17:36:50.444Z,27.30
2018-02-24T17:39:18.042Z,27.20
2018-02-24T17:41:46.364Z,26.50
2018-02-24T17:44:13.974Z,26.50
2018-02-24T17:46:42.291Z,26.50
2018-02-24T17:49:09.883Z,26.60
2018-02-24T17:51:37.468Z,26.60
2018-02-24T17:54:05.092Z,26.60
2018-02-24T17:56:32.645Z,26.60
2018-02-24T17:59:00.246Z,26.40
2018-02-24T18:01:28.598Z,26.10
2018-02-24T18:03:56.378Z,26.10
2018-02-24T18:06:23.957Z,26.30
2018-02-24T18:08:52.298Z,26.10
2018-02-24T18:11:19.948Z,26.10
2018-02-24T18:13:47.502Z,26.10
2018-02-24T18:16:15.090Z,27.30
2018-02-24T18:18:43.517Z,26.40
2018-02-24T18:21:11.296Z,26.50
2018-02-24T18:23:38.996Z,26.20
2018-02-24T18:26:06.629Z,26.10
2018-02-24T18:28:34.220Z,25.90
2018-02-24T18:31:01.781Z,25.90
2018-02-24T18:33:29.392Z,26.20
2018-02-24T18:35:56.967Z,27.00
2018-02-24T18:38:24.587Z,27.30
2018-02-24T18:40:52.929Z,26.90
2018-02-24T18:43:20.621Z,26.90
2018-02-24T18:45:49.077Z,27.00
2018-02-24T18:48:16.632Z,27.00
2018-02-24T18:50:44.376Z,27.10
2018-02-24T18:53:11.960Z,26.80
2018-02-24T18:55:39.535Z,26.90
2018-02-24T18:58:07.135Z,26.90
2018-02-24T19:00:34.731Z,26.90
2018-02-24T19:03:02.321Z,26.80
2018-02-24T19:05:30.670Z,26.60
2018-02-24T19:07:58.267Z,26.60
2018-02-24T19:10:26.637Z,26.80
2018-02-24T19:12:55.027Z,26.80
2018-02-24T19:15:23.543Z,27.00
2018-02-24T19:17:51.145Z,27.00
2018-02-24T19:20:18.741Z,26.80
2018-02-24T19:22:46.321Z,26.80
2018-02-24T19:25:13.923Z,26.80
2018-02-24T19:27:41.477Z,27.00
2018-02-24T19:30:09.080Z,26.90
2018-02-24T19:32:36.653Z,26.60
2018-02-24T19:35:04.262Z,26.90
2018-02-24T19:37:31.857Z,26.90
2018-02-24T19:40:00.191Z,26.80
2018-02-24T19:42:27.827Z,26.90
2018-02-24T19:44:55.395Z,26.80
2018-02-24T19:47:23.045Z,26.80
2018-02-24T19:49:50.658Z,26.80
2018-02-24T19:52:18.226Z,26.80
2018-02-24T19:54:46.635Z,27.00
2018-02-24T19:57:14.247Z,27.00
2018-02-24T19:59:42.704Z,27.00
2018-02-24T20:02:10.409Z,27.10
2018-02-24T20:04:38.775Z,27.20
2018-02-24T20:07:06.446Z,27.20
2018-02-24T20:09:34.792Z,27.10
2018-02-24T20:12:02.493Z,27.10
2018-02-24T20:14:30.908Z,27.10
2018-02-24T20:16:58.516Z,27.20
2018-02-24T20:19:26.114Z,27.10
2018-02-24T20:21:53.717Z,27.30
2018-02-24T20:24:21.356Z,27.20
2018-02-24T20:26:48.952Z,27.20
2018-02-24T20:29:16.537Z,27.00
2018-02-24T20:31:44.234Z,26.90
2018-02-24T20:34:11.874Z,27.00
2018-02-24T20:36:39.498Z,27.10
2018-02-24T20:39:07.064Z,27.00
2018-02-24T20:41:34.670Z,27.00
2018-02-24T20:44:03.128Z,27.00
2018-02-24T20:46:30.768Z,27.00
2018-02-24T20:48:58.380Z,27.10
2018-02-24T20:51:25.996Z,27.10
2018-02-24T20:53:54.476Z,28.30
2018-02-24T20:56:22.836Z,28.40
2018-02-24T20:58:50.397Z,28.40
2018-02-24T21:01:17.982Z,28.70
2018-02-24T21:03:46.310Z,28.70
2018-02-24T21:06:13.955Z,28.70
2018-02-24T21:08:41.551Z,28.70
2018-02-24T21:11:09.086Z,28.50
2018-02-24T21:13:36.647Z,28.50
2018-02-24T21:16:04.182Z,28.40
2018-02-24T21:18:31.782Z,28.50
2018-02-24T21:20:59.372Z,29.00
2018-02-24T21:23:27.906Z,29.30
2018-02-24T21:25:55.756Z,29.40
2018-02-24T21:28:23.494Z,29.50
2018-02-24T21:30:52.002Z,29.70
2018-02-24T21:33:19.576Z,29.70
2018-02-24T21:35:47.178Z,30.00
2018-02-24T21:38:14.732Z,30.20
2018-02-24T21:40:42.299Z,30.20
2018-02-24T21:43:10.680Z,30.00
2018-02-24T21:45:39.036Z,29.80
2018-02-24T21:48:06.710Z,29.80
2018-02-24T21:50:34.271Z,29.70
2018-02-24T21:53:01.852Z,29.60
2018-02-24T21:55:30.221Z,29.10
2018-02-24T21:57:58.558Z,29.10
2018-02-24T22:00:26.142Z,29.10
2018-02-24T22:02:54.587Z,28.50
2018-02-24T22:05:22.173Z,28.50
2018-02-24T22:07:49.820Z,28.60
2018-02-24T22:10:17.386Z,28.50
2018-02-24T22:12:44.999Z,28.50
2018-02-24T22:15:13.350Z,28.50
2018-02-24T22:17:41.696Z,28.70
2018-02-24T22:20:09.274Z,28.50
2018-02-24T22:22:36.944Z,28.50
2018-02-24T22:25:04.540Z,28.70
2018-02-24T22:27:32.140Z,29.20
2018-02-24T22:29:59.754Z,29.40
2018-02-24T22:32:28.054Z,29.40
2018-02-24T22:34:55.608Z,29.40
2018-02-24T22:37:24.116Z,28.80
2018-02-24T22:39:51.793Z,28.70
2018-02-24T22:42:19.403Z,28.70
2018-02-24T22:44:46.984Z,28.70
2018-02-24T22:47:14.526Z,28.70
2018-02-24T22:49:42.144Z,28.70
2018-02-24T22:52:10.687Z,28.80
2018-02-24T22:54:38.377Z,28.70
2018-02-24T22:57:05.968Z,28.70
2018-02-24T22:59:34.330Z,28.80
2018-02-24T23:02:01.929Z,28.70
2018-02-24T23:04:29.524Z,28.70
2018-02-24T23:06:57.132Z,28.70
2018-02-24T23:09:25.527Z,28.70
2018-02-24T23:11:53.147Z,28.70
2018-02-24T23:14:20.920Z,28.70
2018-02-24T23:16:48.481Z,28.70
2018-02-24T23:19:16.848Z,28.20
2018-02-24T23:21:44.479Z,28.30
2018-02-24T23:24:12.057Z,28.70
2018-02-24T23:26:39.790Z,28.50
2018-02-24T23:29:07.386Z,28.60
2018-02-24T23:31:34.957Z,29.10
2018-02-24T23:34:02.548Z,28.40
2018-02-24T23:36:30.131Z,28.30
2018-02-24T23:38:57.672Z,28.30
2018-02-24T23:41:25.348Z,28.10
2018-02-24T23:43:52.977Z,28.20
2018-02-24T23:46:21.319Z,28.00
2018-02-24T23:48:48.921Z,28.00
2018-02-24T23:51:17.263Z,27.80
2018-02-24T23:53:44.872Z,27.90
2018-02-24T23:56:13.380Z,26.10
2018-02-24T23:58:40.981Z,26.10
